Matthews, IN (46957)

2:53 PM EDT on August 20, 2014 (GMT -0400)
WB9HLA-1 | Change Station
CLOSE
Current Station
Personal Weather Station
Location: Hartford City, IN
Elevation: 918 ft
Nearby Weather Stations

Elev 918 ft 40.46 °N, 85.37 °W | Updated 12 minutes ago

Clear
Clear
90.0 °F
Feels Like 86 °F
N
5.8
Wind Variable Wind from WNW
Gusts 13.4 mph

Today
High -- | Low -- °F
--% Chance of Precip.
Yesterday
High -- | Low -- °F
Precip. -- in
6:57 AM 8:32 PM
Waning Crescent, 20% visible
Pressure 29.93 in
Visibility 10.0 miles
Clouds Clear
Heat Index 86 °F
Dew Point 39 °F
Humidity 17%
Rainfall -999.00 in
Snow Depth Not available.
UV 10 out of 12
Pollen 9.80 out of 12
Air Quality Not available.
Flu Activity Not available.
METAR KMIE 201753Z 28012KT 10SM CLR 28/18 A2996 RMK AO2 SLP134 T02830178 10283 20189 51009

More Conditions Fewer Conditions

Pressure 29.93 in
Visibility 10.0 miles
Clouds Clear
Heat Index 86 °F
Dew Point 39 °F
Humidity 17%
Rainfall -999.00 in
Snow Depth Not available.
UV 10 out of 12
Pollen 9.80 out of 12
Air Quality Not available.
Flu Activity Not available.
METAR KMIE 201753Z 28012KT 10SM CLR 28/18 A2996 RMK AO2 SLP134 T02830178 10283 20189 51009

More Conditions Fewer Conditions

10-Day Weather Forecast

Almanac

Astronomy

Aug. 20, 2014 Rise Set
Actual Time 6:57 AM EDT 8:32 PM EDT
Civil Twilight 6:28 AM EDT 9:00 PM EDT
Nautical Twilight 5:54 AM EDT 9:35 PM EDT
Astronomical Twilight 5:17 AM EDT 10:12 PM EDT
Moon 2:36 AM EDT 5:16 PM EDT
Length of Visible Light 14h 31m
Length of Day
13h 34m
Tomorrow will be 2m 27s shorter.
Waning Crescent, 20% of the Moon is Illuminated
Today
Waning Crescent
Aug 25
New
Sep 2
First Quarter
Sep 8
Full
Sep 15
Last Quarter

Today's Extremes

State Highs State Lows

Community

WunderPhotos

Upload Photos

1,745,717 photos uploaded!

WunderBlogs® & News

By Dr. Jeff Masters
Director of Meteorology, Weather Underground
By Kari Strenfel
Meteorologist, Weather Underground
By Christopher C. Burt
Weather Historian, Weather Underground
August 20, 2014
August 20, 2014
August 20, 2014

Nearby

Snow Depth

Station Depth Elevation
No new snow has been reported.

Earthquake Activity

City Distance Mag. Time & Date
No recent earthquake activity has been reported nearby.
Minimum magnitude displayed is 2.5.

Coastal Water Temperatures

Place Temperature
No Stations Reporting

Nearby Weather Stations